Time;durP1;ratioP1;P1;durP2;ratioP2;P2;SDS_P1;SDS_P2;PMS_P1;PMS_P2;Temp;Humidity;BMP_temperature;BMP_pressure;BME280_temperature;BME280_humidity;BME280_pressure;Samples;Min_cycle;Max_cycle;Signal;HPM_P1;HPM_P2
2024/01/09 00:01:49;;;;;;;0.20;0.20;;;;;;;-1.33;59.75;103565.28;5108292;28;20042;-79
2024/01/09 00:04:15;;;;;;;1.52;1.38;;;;;;;-1.29;59.34;103556.91;5107779;28;20028;-80
2024/01/09 00:06:41;;;;;;;0.20;0.20;;;;;;;-1.27;59.42;103557.00;5104755;28;20040;-79
2024/01/09 00:09:07;;;;;;;0.20;0.20;;;;;;;-1.26;59.69;103564.03;5108690;28;20047;-80
2024/01/09 00:11:33;;;;;;;0.20;0.20;;;;;;;-1.29;60.19;103566.44;5106822;28;20032;-79
2024/01/09 00:14:00;;;;;;;2.60;2.50;;;;;;;-1.37;59.95;103551.16;5102964;28;20039;-79
2024/01/09 00:16:26;;;;;;;0.20;0.20;;;;;;;-1.36;59.67;103554.66;5100758;28;20039;-79
2024/01/09 00:18:53;;;;;;;0.20;0.20;;;;;;;-1.39;59.63;103560.53;5105062;28;20062;-79
2024/01/09 00:21:20;;;;;;;0.20;0.20;;;;;;;-1.42;59.26;103554.19;5103264;28;20068;-79
2024/01/09 00:23:46;;;;;;;0.20;0.20;;;;;;;-1.39;59.48;103550.13;5107710;28;20087;-79
2024/01/09 00:26:13;;;;;;;0.20;0.20;;;;;;;-1.42;59.80;103554.19;5108624;28;20053;-79
2024/01/09 00:28:39;;;;;;;1.40;1.40;;;;;;;-1.46;60.01;103553.06;5109768;28;20038;-79
2024/01/09 00:31:05;;;;;;;0.20;0.20;;;;;;;-1.45;59.79;103552.28;5089924;28;20028;-80
2024/01/09 00:33:33;;;;;;;0.20;0.20;;;;;;;-1.45;59.26;103548.78;5108839;28;20028;-79
2024/01/09 00:36:01;;;;;;;0.20;0.20;;;;;;;-1.57;59.89;103551.38;5107406;28;20032;-79
2024/01/09 00:38:28;;;;;;;0.20;0.20;;;;;;;-1.53;59.46;103540.44;5111105;28;20545;-79
2024/01/09 00:40:54;;;;;;;0.20;0.20;;;;;;;-1.54;59.36;103549.03;5106390;28;20077;-79
2024/01/09 00:43:20;;;;;;;0.20;0.20;;;;;;;-1.59;59.64;103545.19;5108098;28;20133;-79
2024/01/09 00:45:46;;;;;;;0.20;0.20;;;;;;;-1.58;60.16;103531.38;5110823;28;20077;-78
2024/01/09 00:48:12;;;;;;;0.20;0.20;;;;;;;-1.51;59.79;103544.03;5113144;28;20039;-79
2024/01/09 00:50:39;;;;;;;0.20;0.20;;;;;;;-1.55;59.73;103542.00;5109071;28;20047;-79
2024/01/09 00:53:05;;;;;;;0.20;0.20;;;;;;;-1.50;59.55;103535.44;5104687;28;20028;-79
2024/01/09 00:55:32;;;;;;;0.10;0.10;;;;;;;-1.51;59.85;103544.97;5111001;28;20023;-78
2024/01/09 00:57:58;;;;;;;0.20;0.20;;;;;;;-1.47;59.37;103533.06;5116403;28;20074;-79
2024/01/09 01:00:24;;;;;;;0.20;0.20;;;;;;;-1.52;60.16;103548.34;5115541;28;20047;-81
2024/01/09 01:02:50;;;;;;;0.50;0.50;;;;;;;-1.59;60.46;103546.06;5106688;28;20043;-80
2024/01/09 01:05:17;;;;;;;0.20;0.20;;;;;;;-1.52;59.61;103534.41;5106424;28;20050;-80
2024/01/09 01:07:43;;;;;;;0.20;0.20;;;;;;;-1.49;59.96;103539.88;5104328;28;20030;-79
2024/01/09 01:10:13;;;;;;;0.20;0.20;;;;;;;-1.55;60.28;103547.22;5102133;28;20036;-80
2024/01/09 01:12:40;;;;;;;0.20;0.20;;;;;;;-1.59;59.92;103542.59;5103203;28;20028;-79
2024/01/09 01:15:07;;;;;;;0.20;0.20;;;;;;;-1.58;60.01;103549.56;5089789;28;20035;-79
2024/01/09 01:17:33;;;;;;;0.20;0.20;;;;;;;-1.56;59.75;103548.00;5106417;28;20093;-78
2024/01/09 01:19:59;;;;;;;0.25;0.25;;;;;;;-1.58;60.02;103546.97;5103830;28;20550;-79
2024/01/09 01:22:25;;;;;;;0.20;0.20;;;;;;;-1.59;59.82;103545.19;5103304;28;20027;-79
2024/01/09 01:24:51;;;;;;;0.20;0.20;;;;;;;-1.64;59.89;103557.84;5104051;28;20034;-79
2024/01/09 01:27:17;;;;;;;0.20;0.20;;;;;;;-1.65;59.75;103546.50;5101356;28;20051;-78
2024/01/09 01:29:44;;;;;;;0.20;0.20;;;;;;;-1.65;59.76;103549.13;5105493;28;20445;-79
2024/01/09 01:32:10;;;;;;;0.20;0.20;;;;;;;-1.65;60.28;103551.72;5107028;28;20055;-79
2024/01/09 01:34:37;;;;;;;0.20;0.20;;;;;;;-1.66;59.94;103557.72;5106241;28;20099;-79
2024/01/09 01:37:03;;;;;;;0.20;0.20;;;;;;;-1.69;59.59;103560.09;5109589;28;20023;-79
2024/01/09 01:39:30;;;;;;;0.30;0.30;;;;;;;-1.73;60.54;103555.47;5106047;28;20405;-79
2024/01/09 01:41:56;;;;;;;0.20;0.20;;;;;;;-1.73;60.36;103552.88;5104182;28;20036;-79
2024/01/09 01:44:22;;;;;;;0.20;0.20;;;;;;;-1.75;60.08;103551.84;5084569;28;20071;-79
2024/01/09 01:46:50;;;;;;;0.20;0.20;;;;;;;-1.72;60.20;103557.28;5101749;28;20530;-79
2024/01/09 01:49:18;;;;;;;0.20;0.20;;;;;;;-1.72;60.28;103553.75;5102356;28;20063;-79
2024/01/09 01:51:48;;;;;;;0.20;0.20;;;;;;;-1.76;60.71;103557.81;5103062;28;20015;-78
2024/01/09 01:54:15;;;;;;;0.17;0.17;;;;;;;-1.84;60.83;103556.38;5110502;28;20096;-79
2024/01/09 01:56:43;;;;;;;0.20;0.20;;;;;;;-1.82;60.51;103557.34;5111010;28;20054;-79
2024/01/09 01:59:10;;;;;;;0.20;0.20;;;;;;;-1.80;60.40;103555.78;5105390;28;20096;-80
2024/01/09 02:01:38;;;;;;;0.20;0.20;;;;;;;-1.77;60.85;103548.19;5105780;28;20055;-79
2024/01/09 02:04:05;;;;;;;0.20;0.20;;;;;;;-1.79;59.91;103549.81;5107102;28;20215;-80
2024/01/09 02:06:31;;;;;;;0.20;0.20;;;;;;;-1.82;60.66;103546.97;5089954;28;20036;-79
2024/01/09 02:08:58;;;;;;;0.20;0.20;;;;;;;-1.79;60.76;103542.00;5115500;28;20016;-78
2024/01/09 02:11:25;;;;;;;0.20;0.20;;;;;;;-1.78;59.86;103543.81;5108551;28;20028;-79
2024/01/09 02:13:51;;;;;;;0.20;0.20;;;;;;;-1.83;60.46;103540.88;5106557;28;20027;-79
2024/01/09 02:16:17;;;;;;;0.20;0.20;;;;;;;-1.86;59.84;103535.44;5111457;28;20032;-79
2024/01/09 02:18:44;;;;;;;0.20;0.20;;;;;;;-1.87;60.55;103536.25;5120293;28;20023;-78
2024/01/09 02:21:10;;;;;;;0.20;0.20;;;;;;;-1.87;60.62;103537.94;5114142;28;20142;-78
2024/01/09 02:23:36;;;;;;;0.20;0.20;;;;;;;-1.84;60.05;103532.97;5108354;28;20110;-79
2024/01/09 02:26:03;;;;;;;0.15;0.15;;;;;;;-1.88;60.00;103536.09;5103165;28;20031;-78
2024/01/09 02:28:35;;;;;;;0.20;0.20;;;;;;;-1.84;60.03;103535.56;5106254;28;20032;-79
2024/01/09 02:31:01;;;;;;;0.20;0.20;;;;;;;-1.86;60.15;103532.84;5106953;28;20441;-79
2024/01/09 02:33:29;;;;;;;0.20;0.20;;;;;;;-1.87;60.71;103532.72;5109632;28;20055;-79
2024/01/09 02:35:55;;;;;;;0.20;0.20;;;;;;;-1.90;61.08;103538.59;5109926;28;20080;-78
2024/01/09 02:38:21;;;;;;;0.20;0.20;;;;;;;-1.92;60.79;103537.56;5107088;28;20032;-79
2024/01/09 02:40:47;;;;;;;0.20;0.20;;;;;;;-1.91;60.44;103535.91;5110889;28;20068;-79
2024/01/09 02:43:14;;;;;;;0.20;0.20;;;;;;;-1.95;60.05;103526.97;5111089;28;20056;-79
2024/01/09 02:45:40;;;;;;;0.20;0.20;;;;;;;-2.01;60.38;103530.00;5111365;28;20039;-79
2024/01/09 02:48:06;;;;;;;0.20;0.20;;;;;;;-2.07;60.90;103529.53;5106186;28;20084;-79
2024/01/09 02:50:32;;;;;;;0.20;0.20;;;;;;;-2.01;60.38;103537.78;5104562;28;20031;-80
2024/01/09 02:52:59;;;;;;;0.20;0.20;;;;;;;-2.04;60.29;103537.56;5102501;28;20039;-80
2024/01/09 02:55:25;;;;;;;0.20;0.20;;;;;;;-2.04;60.72;103539.28;5105606;28;20024;-79
2024/01/09 02:57:51;;;;;;;0.20;0.20;;;;;;;-2.02;60.58;103530.81;5105522;28;20030;-80
2024/01/09 03:00:19;;;;;;;0.20;0.20;;;;;;;-1.99;60.01;103533.63;5105076;28;20114;-79
2024/01/09 03:02:45;;;;;;;0.20;0.20;;;;;;;-2.08;60.80;103529.41;5109023;28;20028;-79
2024/01/09 03:05:11;;;;;;;0.20;0.20;;;;;;;-2.05;60.62;103521.88;5108347;28;20483;-79
2024/01/09 03:07:38;;;;;;;0.38;0.38;;;;;;;-2.06;60.59;103526.16;5109075;28;20026;-79
2024/01/09 03:10:04;;;;;;;0.20;0.20;;;;;;;-2.12;60.38;103523.09;5110481;28;20028;-78
2024/01/09 03:12:30;;;;;;;0.20;0.20;;;;;;;-2.09;60.86;103531.13;5108448;28;20107;-79
2024/01/09 03:14:57;;;;;;;0.30;0.30;;;;;;;-2.07;60.76;103528.63;5105176;28;20051;-79
2024/01/09 03:17:23;;;;;;;0.20;0.20;;;;;;;-2.09;60.52;103520.75;5105063;28;20050;-79
2024/01/09 03:19:49;;;;;;;0.25;0.25;;;;;;;-2.12;60.89;103523.09;5107234;28;20083;-79
2024/01/09 03:22:15;;;;;;;0.20;0.20;;;;;;;-2.14;61.36;103522.97;5103350;28;20256;-79
2024/01/09 03:24:42;;;;;;;0.30;0.30;;;;;;;-2.14;61.64;103516.91;5103874;28;20036;-80
2024/01/09 03:27:08;;;;;;;0.20;0.20;;;;;;;-2.14;61.10;103519.50;5105088;28;20024;-80
2024/01/09 03:29:34;;;;;;;0.20;0.20;;;;;;;-2.13;61.14;103517.00;5106102;28;20032;-79
2024/01/09 03:32:00;;;;;;;0.30;0.30;;;;;;;-2.15;61.13;103515.97;5101764;28;20033;-79
2024/01/09 03:34:26;;;;;;;0.20;0.20;;;;;;;-2.15;61.42;103515.97;5102859;28;20502;-79
2024/01/09 03:36:52;;;;;;;0.20;0.20;;;;;;;-2.21;61.75;103509.41;5116922;28;20032;-78
2024/01/09 03:39:19;;;;;;;0.30;0.30;;;;;;;-2.21;61.12;103514.63;5120304;28;20024;-79
2024/01/09 03:41:46;;;;;;;0.20;0.20;;;;;;;-2.18;60.92;103513.16;5106053;28;20039;-79
2024/01/09 03:44:12;;;;;;;0.20;0.20;;;;;;;-2.24;61.46;103509.16;5086639;28;20522;-79
2024/01/09 03:46:38;;;;;;;0.20;0.20;;;;;;;-2.21;61.06;103510.31;5105732;28;20036;-79
2024/01/09 03:49:05;;;;;;;0.20;0.20;;;;;;;-2.22;61.68;103508.50;5107600;28;20024;-79
2024/01/09 03:51:31;;;;;;;0.65;0.65;;;;;;;-2.21;61.76;103509.41;5105291;28;20032;-79
2024/01/09 03:53:57;;;;;;;0.20;0.20;;;;;;;-2.21;60.85;103501.63;5107524;28;20026;-79
2024/01/09 03:56:24;;;;;;;0.20;0.20;;;;;;;-2.23;61.58;103503.19;5106320;28;20024;-78
2024/01/09 03:58:52;;;;;;;0.20;0.20;;;;;;;-2.24;61.77;103507.50;5108968;28;20031;-78
2024/01/09 04:01:19;;;;;;;0.20;0.20;;;;;;;-2.24;61.29;103506.56;5107565;28;20012;-78
2024/01/09 04:03:45;;;;;;;0.20;0.20;;;;;;;-2.27;61.35;103499.47;5111771;28;20038;-79
2024/01/09 04:06:12;;;;;;;0.20;0.20;;;;;;;-2.25;61.66;103497.91;5107841;28;20024;-79
2024/01/09 04:08:38;;;;;;;0.20;0.20;;;;;;;-2.25;61.26;103499.59;5110627;28;20479;-79
2024/01/09 04:11:04;;;;;;;0.20;0.20;;;;;;;-2.22;60.41;103502.41;5100412;28;20024;-79
2024/01/09 04:13:31;;;;;;;0.20;0.20;;;;;;;-2.19;61.02;103497.47;5106257;28;20035;-78
2024/01/09 04:15:57;;;;;;;0.20;0.20;;;;;;;-2.25;61.36;103497.00;5093744;28;20027;-77
2024/01/09 04:18:24;;;;;;;0.20;0.20;;;;;;;-2.25;61.24;103491.81;5093920;28;20036;-77
2024/01/09 04:20:50;;;;;;;0.20;0.20;;;;;;;-2.26;60.93;103500.38;5097677;28;20035;-78
2024/01/09 04:23:16;;;;;;;0.20;0.20;;;;;;;-2.31;61.49;103492.22;5106458;28;20031;-78
2024/01/09 04:25:42;;;;;;;0.20;0.20;;;;;;;-2.30;61.79;103504.44;5101801;28;20043;-78
2024/01/09 04:28:08;;;;;;;0.20;0.20;;;;;;;-2.32;61.53;103504.31;5106705;28;20020;-79
2024/01/09 04:30:34;;;;;;;0.20;0.20;;;;;;;-2.33;62.02;103502.50;5106854;28;20028;-79
2024/01/09 04:33:01;;;;;;;0.10;0.10;;;;;;;-2.30;62.09;103500.13;5109739;28;20034;-79
2024/01/09 04:35:27;;;;;;;0.20;0.20;;;;;;;-2.33;62.16;103502.50;5110721;28;20058;-80
2024/01/09 04:37:53;;;;;;;0.20;0.20;;;;;;;-2.35;61.90;103501.47;5115278;28;20053;-78
2024/01/09 04:40:19;;;;;;;0.20;0.20;;;;;;;-2.33;62.17;103505.13;5114796;28;20028;-78
2024/01/09 04:42:45;;;;;;;0.20;0.20;;;;;;;-2.34;61.82;103505.91;5109544;28;20028;-78
2024/01/09 04:45:11;;;;;;;0.20;0.20;;;;;;;-2.36;62.46;103503.97;5103023;28;20081;-78
2024/01/09 04:47:38;;;;;;;0.75;0.75;;;;;;;-2.37;62.40;103513.44;5105506;28;20028;-78
2024/01/09 04:50:04;;;;;;;0.20;0.20;;;;;;;-2.35;62.05;103513.56;5104937;28;20032;-78
2024/01/09 04:52:30;;;;;;;0.20;0.20;;;;;;;-2.37;62.55;103508.25;5103317;28;20031;-78
2024/01/09 04:54:57;;;;;;;0.20;0.20;;;;;;;-2.39;62.59;103515.03;5097898;28;20557;-78
2024/01/09 04:57:23;;;;;;;0.20;0.20;;;;;;;-2.40;62.52;103514.94;5113835;28;20032;-78
2024/01/09 04:59:49;;;;;;;0.20;0.20;;;;;;;-2.41;62.05;103501.00;5119476;28;20128;-78
2024/01/09 05:02:16;;;;;;;0.20;0.20;;;;;;;-2.43;62.02;103507.78;5106719;28;20131;-78
2024/01/09 05:04:42;;;;;;;0.20;0.20;;;;;;;-2.44;62.45;103506.00;5108586;28;20122;-80
2024/01/09 05:07:08;;;;;;;0.20;0.20;;;;;;;-2.47;62.61;103500.53;5108632;28;20564;-78
2024/01/09 05:09:34;;;;;;;0.10;0.10;;;;;;;-2.41;61.59;103513.09;5106248;28;20388;-77
2024/01/09 05:12:00;;;;;;;0.20;0.20;;;;;;;-2.43;62.08;103510.38;5106021;28;20495;-78
2024/01/09 05:14:26;;;;;;;0.20;0.20;;;;;;;-2.47;61.68;103510.94;5119871;28;20493;-78
2024/01/09 05:16:53;;;;;;;0.20;0.20;;;;;;;-2.47;62.27;103500.53;5113754;28;20035;-78
2024/01/09 05:19:19;;;;;;;0.20;0.20;;;;;;;-2.48;61.85;103510.03;5108736;28;20050;-78
2024/01/09 05:21:45;;;;;;;0.20;0.20;;;;;;;-2.58;62.03;103509.22;5113138;28;20071;-78
2024/01/09 05:24:11;;;;;;;0.20;0.20;;;;;;;-2.60;62.43;103504.78;5113599;28;20479;-78
2024/01/09 05:26:38;;;;;;;0.20;0.20;;;;;;;-2.64;62.65;103507.94;5115499;28;20043;-78
2024/01/09 05:29:04;;;;;;;0.15;0.15;;;;;;;-2.64;62.80;103513.16;5101976;28;20020;-77
2024/01/09 05:31:30;;;;;;;0.20;0.20;;;;;;;-2.67;63.08;103510.28;5102132;28;20028;-77
2024/01/09 05:33:56;;;;;;;0.20;0.20;;;;;;;-2.67;63.17;103515.47;5101414;28;20024;-78
2024/01/09 05:36:23;;;;;;;0.30;0.30;;;;;;;-2.70;62.91;103504.88;5102556;28;20551;-79
2024/01/09 05:38:51;;;;;;;0.20;0.20;;;;;;;-2.72;63.05;103506.44;5105861;28;20023;-79
2024/01/09 05:41:20;;;;;;;0.20;0.20;;;;;;;-2.77;63.08;103512.97;5108035;28;20054;-79
2024/01/09 05:43:46;;;;;;;0.30;0.30;;;;;;;-2.81;62.81;103514.41;5109521;28;20096;-78
2024/01/09 05:46:12;;;;;;;0.20;0.20;;;;;;;-2.86;62.94;103509.69;5112493;28;20039;-79
2024/01/09 05:48:40;;;;;;;0.20;0.20;;;;;;;-2.89;63.25;103519.78;5114146;28;20031;-79
2024/01/09 05:51:06;;;;;;;0.30;0.30;;;;;;;-2.88;63.27;103519.00;5108403;28;20042;-78
2024/01/09 05:53:32;;;;;;;0.20;0.20;;;;;;;-2.88;63.02;103503.44;5112134;28;20032;-78
2024/01/09 05:55:58;;;;;;;0.20;0.20;;;;;;;-2.90;63.39;103510.19;5111593;28;20028;-78
2024/01/09 05:58:25;;;;;;;1.52;1.42;;;;;;;-2.87;63.74;103507.84;5111357;28;20028;-79
2024/01/09 06:00:51;;;;;;;0.22;0.22;;;;;;;-2.88;63.39;103513.81;5103998;28;20097;-78
2024/01/09 06:03:17;;;;;;;0.20;0.20;;;;;;;-2.86;63.39;103514.88;5100752;28;20034;-78
2024/01/09 06:05:43;;;;;;;0.20;0.20;;;;;;;-2.87;63.42;103518.25;5104522;28;20456;-78
2024/01/09 06:08:09;;;;;;;0.20;0.20;;;;;;;-2.89;62.77;103519.78;5103716;28;20498;-79
2024/01/09 06:10:35;;;;;;;0.20;0.20;;;;;;;-2.96;63.14;103519.31;5105356;28;20039;-78
2024/01/09 06:13:01;;;;;;;1.95;0.73;;;;;;;-2.89;62.76;103527.56;5106805;28;20036;-78
2024/01/09 06:15:27;;;;;;;0.20;0.20;;;;;;;-2.94;63.00;103516.84;5104484;28;20463;-78
2024/01/09 06:17:54;;;;;;;0.20;0.20;;;;;;;-2.92;62.92;103510.09;5106002;28;20050;-79
2024/01/09 06:20:20;;;;;;;0.20;0.20;;;;;;;-2.93;63.08;103519.56;5120495;28;20020;-79
2024/01/09 06:22:46;;;;;;;0.20;0.20;;;;;;;-2.85;62.68;103517.56;5120477;28;20032;-79
2024/01/09 06:25:13;;;;;;;0.20;0.20;;;;;;;-2.89;62.47;103525.91;5107535;28;20024;-79
2024/01/09 06:27:39;;;;;;;0.20;0.20;;;;;;;-2.79;62.23;103517.13;5106073;28;20035;-80
2024/01/09 06:30:06;;;;;;;0.20;0.20;;;;;;;-2.80;62.22;103520.53;5102889;28;20107;-79
2024/01/09 06:32:33;;;;;;;0.17;0.17;;;;;;;-2.77;62.36;103526.88;5102829;28;20502;-79
2024/01/09 06:34:59;;;;;;;0.40;0.40;;;;;;;-2.76;62.33;103522.56;5107456;28;20036;-79
2024/01/09 06:37:25;;;;;;;0.20;0.20;;;;;;;-2.76;62.01;103526.06;5109194;28;20031;-80
2024/01/09 06:39:51;;;;;;;0.20;0.20;;;;;;;-2.76;62.19;103538.13;5107430;28;20028;-80
2024/01/09 06:42:18;;;;;;;0.20;0.20;;;;;;;-2.72;62.25;103540.19;5104737;28;20036;-79
2024/01/09 06:44:44;;;;;;;0.20;0.20;;;;;;;-2.71;62.43;103546.28;5106784;28;20077;-79
2024/01/09 06:47:10;;;;;;;0.20;0.20;;;;;;;-2.73;62.22;103543.56;5109787;28;20024;-79
2024/01/09 06:49:36;;;;;;;0.20;0.20;;;;;;;-2.71;61.99;103547.19;5108337;28;20043;-79
2024/01/09 06:52:02;;;;;;;0.20;0.20;;;;;;;-2.73;61.84;103538.38;5104432;28;20020;-79
2024/01/09 06:54:29;;;;;;;0.20;0.20;;;;;;;-2.75;61.81;103542.56;5107698;28;20040;-80
2024/01/09 06:56:55;;;;;;;0.10;0.10;;;;;;;-2.75;61.73;103539.97;5103533;28;20032;-80
2024/01/09 06:59:21;;;;;;;0.20;0.20;;;;;;;-2.72;61.53;103534.09;5103159;28;20453;-79
2024/01/09 07:01:48;;;;;;;0.20;0.20;;;;;;;-2.72;61.67;103540.19;5102369;28;20035;-79
2024/01/09 07:04:15;;;;;;;0.20;0.20;;;;;;;-2.75;61.61;103539.97;5104393;28;20057;-79
2024/01/09 07:06:41;;;;;;;0.20;0.20;;;;;;;-2.77;61.55;103541.50;5101242;28;20051;-79
2024/01/09 07:09:07;;;;;;;0.17;0.17;;;;;;;-2.78;61.36;103542.28;5100477;28;20053;-78
2024/01/09 07:11:33;;;;;;;0.20;0.20;;;;;;;-2.82;61.33;103546.34;5104584;28;20020;-78
2024/01/09 07:14:00;;;;;;;0.20;0.20;;;;;;;-2.88;61.54;103543.25;5104862;28;20036;-79
2024/01/09 07:16:26;;;;;;;0.85;0.85;;;;;;;-2.83;61.59;103541.03;5107111;28;20099;-80
2024/01/09 07:18:53;;;;;;;0.20;0.20;;;;;;;-2.82;61.38;103550.63;5104831;28;20032;-81
2024/01/09 07:21:19;;;;;;;0.20;0.20;;;;;;;-2.85;61.32;103547.81;5104959;28;20037;-81
2024/01/09 07:23:46;;;;;;;0.20;0.20;;;;;;;-2.87;61.13;103551.97;5107072;28;20030;-82
2024/01/09 07:26:13;;;;;;;0.20;0.20;;;;;;;-2.85;61.19;103548.72;5104005;28;20028;-80
2024/01/09 07:28:41;;;;;;;0.20;0.20;;;;;;;-2.88;61.25;103552.75;5103051;28;20020;-80
2024/01/09 07:31:09;;;;;;;0.20;0.20;;;;;;;-2.85;61.09;103550.41;5099759;28;20060;-79
2024/01/09 07:33:35;;;;;;;0.20;0.20;;;;;;;-2.88;61.01;103553.63;5102422;28;20095;-79
2024/01/09 07:36:02;;;;;;;0.20;0.20;;;;;;;-2.93;60.95;103561.09;5104579;28;20019;-79
2024/01/09 07:38:28;;;;;;;0.20;0.20;;;;;;;-2.88;61.01;103563.13;5106742;28;20020;-80
2024/01/09 07:40:55;;;;;;;0.20;0.20;;;;;;;-2.95;61.28;103565.22;5103826;28;20364;-78
2024/01/09 07:43:21;;;;;;;0.20;0.20;;;;;;;-2.96;60.70;103571.19;5102569;28;20020;-80
2024/01/09 07:45:47;;;;;;;0.20;0.20;;;;;;;-2.95;60.54;103574.72;5106399;28;20028;-79
2024/01/09 07:48:14;;;;;;;0.20;0.20;;;;;;;-2.94;60.54;103580.03;5105660;28;20027;-80
2024/01/09 07:50:40;;;;;;;0.20;0.20;;;;;;;-2.96;60.50;103586.75;5103311;28;20023;-80
2024/01/09 07:53:07;;;;;;;0.55;0.55;;;;;;;-2.93;60.54;103589.63;5105754;28;20024;-79
2024/01/09 07:55:33;;;;;;;0.20;0.20;;;;;;;-2.98;60.63;103596.13;5102386;28;20390;-78
2024/01/09 07:58:00;;;;;;;0.30;0.30;;;;;;;-2.97;60.61;103594.44;5103067;28;20032;-80
2024/01/09 08:00:26;;;;;;;0.20;0.20;;;;;;;-2.96;60.63;103597.13;5101092;28;20020;-80
2024/01/09 08:02:52;;;;;;;0.20;0.20;;;;;;;-2.99;60.48;103599.50;5104774;28;20036;-79
2024/01/09 08:05:19;;;;;;;0.20;0.20;;;;;;;-2.96;60.25;103597.13;5110449;28;20038;-78
2024/01/09 08:07:45;;;;;;;0.20;0.20;;;;;;;-2.92;60.36;103598.28;5109070;28;20085;-80
2024/01/09 08:10:12;;;;;;;0.20;0.20;;;;;;;-2.95;60.31;103604.16;5101273;28;20043;-80
2024/01/09 08:12:38;;;;;;;0.20;0.20;;;;;;;-2.93;60.24;103602.59;5104203;28;20487;-81
2024/01/09 08:15:04;;;;;;;0.20;0.20;;;;;;;-2.94;60.11;103602.44;5103211;28;20028;-80
2024/01/09 08:17:30;;;;;;;0.30;0.30;;;;;;;-2.96;60.44;103609.22;5101751;28;20024;-80
2024/01/09 08:19:57;;;;;;;0.20;0.20;;;;;;;-2.92;60.17;103608.66;5102238;28;20020;-81
2024/01/09 08:22:23;;;;;;;0.20;0.20;;;;;;;-2.91;60.30;103610.50;5101963;28;20039;-79
2024/01/09 08:24:49;;;;;;;0.95;0.68;;;;;;;-2.94;59.94;103611.16;5104593;28;20039;-82
2024/01/09 08:27:15;;;;;;;0.20;0.20;;;;;;;-2.90;60.12;103613.97;5105355;28;20032;-80
2024/01/09 08:29:43;;;;;;;0.20;0.20;;;;;;;-2.88;61.36;103615.91;5106713;28;20024;-80
2024/01/09 08:32:18;;;;;;;0.20;0.20;;;;;;;-2.68;61.88;103614.94;5101660;28;20048;-81
2024/01/09 08:34:44;;;;;;;0.22;0.22;;;;;;;-2.62;60.97;103614.47;5104618;28;20084;-79
2024/01/09 08:37:10;;;;;;;0.20;0.20;;;;;;;-2.64;59.92;103609.19;5112781;28;20031;-80
2024/01/09 08:39:36;;;;;;;0.35;0.35;;;;;;;-2.65;59.55;103609.97;5114272;28;20042;-79
2024/01/09 08:42:03;;;;;;;0.20;0.20;;;;;;;-2.70;59.40;103611.28;5111275;28;20028;-79
2024/01/09 08:44:29;;;;;;;0.20;0.20;;;;;;;-2.70;59.32;103610.41;5114347;28;20046;-79
2024/01/09 08:46:56;;;;;;;0.20;0.20;;;;;;;-2.66;59.29;103623.72;5111210;28;20047;-80
2024/01/09 08:49:22;;;;;;;0.52;0.52;;;;;;;-2.62;59.49;103623.19;5110535;28;20035;-81
2024/01/09 08:51:48;;;;;;;0.20;0.20;;;;;;;-2.60;59.36;103623.31;5111075;28;20030;-81
2024/01/09 08:54:14;;;;;;;0.20;0.20;;;;;;;-2.55;59.28;103624.56;5114406;28;20102;-80
2024/01/09 08:56:42;;;;;;;0.20;0.20;;;;;;;-2.51;58.63;103620.53;5109800;28;20035;-79
2024/01/09 08:59:09;;;;;;;0.20;0.20;;;;;;;-2.46;58.74;103616.59;5115675;28;20001;-79
2024/01/09 09:01:36;;;;;;;0.30;0.30;;;;;;;-2.46;58.30;103614.91;5121528;28;20067;-80
2024/01/09 09:04:04;;;;;;;0.20;0.20;;;;;;;-2.37;58.79;103617.31;5113894;28;20039;-80
2024/01/09 09:06:30;;;;;;;0.20;0.20;;;;;;;-2.38;57.97;103619.78;5109027;28;20036;-79
2024/01/09 09:08:56;;;;;;;0.20;0.20;;;;;;;-2.36;57.03;103626.03;5112194;28;20024;-79
2024/01/09 09:11:22;;;;;;;0.20;0.20;;;;;;;-2.28;57.66;103627.50;5110370;28;20093;-79
2024/01/09 09:13:48;;;;;;;0.20;0.20;;;;;;;-2.21;57.49;103616.81;5111400;28;20035;-78
2024/01/09 09:16:15;;;;;;;0.20;0.20;;;;;;;-2.12;57.38;103614.00;5113857;28;20032;-78
2024/01/09 09:18:42;;;;;;;0.20;0.20;;;;;;;-2.10;57.08;103606.38;5110111;28;20034;-81
2024/01/09 09:21:08;;;;;;;0.20;0.20;;;;;;;-2.08;56.57;103604.75;5104073;28;20039;-81
2024/01/09 09:23:35;;;;;;;0.20;0.20;;;;;;;-2.02;55.92;103610.44;5107929;28;20030;-81
2024/01/09 09:26:01;;;;;;;0.20;0.20;;;;;;;-1.96;56.33;103598.84;5110065;28;20051;-79
2024/01/09 09:28:27;;;;;;;0.20;0.20;;;;;;;-1.91;56.00;103593.97;5114565;28;20050;-80
2024/01/09 09:30:53;;;;;;;0.20;0.20;;;;;;;-1.83;56.46;103598.06;5111586;28;20487;-81
2024/01/09 09:33:20;;;;;;;0.20;0.20;;;;;;;-1.75;55.82;103601.22;5106835;28;20071;-81
2024/01/09 09:35:46;;;;;;;0.20;0.20;;;;;;;-1.73;55.15;103598.72;5103880;28;20036;-81
2024/01/09 09:38:14;;;;;;;0.20;0.20;;;;;;;-1.69;55.10;103612.09;5120255;28;20046;-81
2024/01/09 09:40:41;;;;;;;0.20;0.20;;;;;;;-1.57;55.57;103612.09;5119052;28;20035;-82
2024/01/09 09:43:15;;;;;;;0.20;0.20;;;;;;;-1.51;54.45;103609.03;5108911;28;20027;-82
2024/01/09 09:45:45;;;;;;;4.47;1.88;;;;;;;-1.44;53.85;103606.13;5109141;28;20039;-82
2024/01/09 09:48:15;;;;;;;0.20;0.20;;;;;;;-1.40;53.42;103610.75;5112282;28;20036;-83
2024/01/09 09:50:43;;;;;;;0.30;0.30;;;;;;;-1.30;53.56;103612.31;5112564;28;20024;-82
2024/01/09 09:53:10;;;;;;;0.32;0.32;;;;;;;-1.19;54.18;103606.22;5113245;28;20058;-83
2024/01/09 09:55:37;;;;;;;0.20;0.20;;;;;;;-1.19;53.41;103611.41;5119215;28;20032;-82
2024/01/09 09:58:04;;;;;;;0.20;0.20;;;;;;;-1.13;52.36;103610.97;5114155;28;20031;-83
2024/01/09 10:00:30;;;;;;;0.20;0.20;;;;;;;-1.09;51.96;103610.38;5103810;28;20063;-82
2024/01/09 10:03:01;;;;;;;0.20;0.20;;;;;;;-0.96;53.22;103614.78;5108454;28;20038;-83
2024/01/09 10:05:28;;;;;;;0.20;0.20;;;;;;;-0.87;52.96;103614.56;5107880;28;20107;-82
2024/01/09 10:07:56;;;;;;;0.30;0.30;;;;;;;-0.76;53.71;103610.09;5108678;28;20034;-82
2024/01/09 10:10:22;;;;;;;0.20;0.20;;;;;;;-0.68;53.39;103611.56;5103444;28;20624;-82
2024/01/09 10:12:49;;;;;;;0.15;0.15;;;;;;;-0.67;52.91;103609.06;5107120;28;20031;-82
2024/01/09 10:15:17;;;;;;;0.20;0.20;;;;;;;-0.56;52.31;103602.00;5121048;28;20040;-81
2024/01/09 10:17:44;;;;;;;0.20;0.20;;;;;;;-0.54;50.85;103608.22;5133330;28;20027;-81
2024/01/09 10:20:13;;;;;;;0.20;0.20;;;;;;;-0.50;50.94;103601.53;5129446;28;20050;-83
2024/01/09 10:22:40;;;;;;;0.20;0.20;;;;;;;-0.35;51.44;103599.09;5118687;28;20028;-83
2024/01/09 10:25:08;;;;;;;0.10;0.10;;;;;;;-0.30;50.17;103599.41;5112799;28;20024;-84
2024/01/09 10:27:36;;;;;;;0.20;0.20;;;;;;;-0.18;51.57;103595.03;5113330;28;20035;-83
2024/01/09 10:30:04;;;;;;;0.85;0.85;;;;;;;-0.13;51.69;103593.66;5114256;28;20024;-81
2024/01/09 10:32:33;;;;;;;0.28;0.28;;;;;;;-0.13;50.20;103592.75;5110775;28;20034;-82
2024/01/09 10:34:59;;;;;;;0.20;0.20;;;;;;;-0.05;50.02;103587.28;5114824;28;20115;-82
2024/01/09 10:37:25;;;;;;;0.20;0.20;;;;;;;-0.02;49.08;103577.03;5111538;28;20032;-82
2024/01/09 10:39:52;;;;;;;0.20;0.20;;;;;;;0.06;48.25;103581.88;5113182;28;20034;-82
2024/01/09 10:42:18;;;;;;;0.20;0.20;;;;;;;0.12;47.70;103579.69;5113912;28;20032;-83
2024/01/09 10:44:47;;;;;;;0.28;0.28;;;;;;;0.27;48.43;103567.66;5117173;28;20024;-83
2024/01/09 10:47:14;;;;;;;0.45;0.45;;;;;;;0.31;49.15;103558.34;5114386;28;20036;-82
2024/01/09 10:49:42;;;;;;;0.20;0.20;;;;;;;0.32;48.62;103553.25;5116405;28;20031;-83
2024/01/09 10:52:13;;;;;;;0.10;0.10;;;;;;;0.40;47.37;103552.81;5111491;28;20687;-81
2024/01/09 10:54:43;;;;;;;0.15;0.15;;;;;;;0.51;48.43;103549.19;5118687;28;20032;-80
2024/01/09 10:57:13;;;;;;;0.20;0.20;;;;;;;0.62;47.89;103536.88;5110478;28;20028;-80
2024/01/09 10:59:42;;;;;;;0.20;0.20;;;;;;;0.60;46.59;103544.59;5114510;28;20028;-81
2024/01/09 11:04:49;;;;;;;0.20;0.20;;;;;;;0.75;47.13;103538.56;5123948;27;20396;-81
2024/01/09 11:07:17;;;;;;;0.20;0.20;;;;;;;0.80;44.61;103537.16;5108353;28;20040;-79
2024/01/09 11:09:46;;;;;;;0.20;0.20;;;;;;;0.89;45.19;103537.72;5110369;28;20052;-80
2024/01/09 11:12:21;;;;;;;0.20;0.20;;;;;;;1.04;45.43;103531.69;5114184;28;20043;-82
2024/01/09 11:14:56;;;;;;;0.20;0.20;;;;;;;1.09;45.15;103523.31;5115539;28;20024;-82
2024/01/09 11:17:23;;;;;;;0.20;0.20;;;;;;;1.19;45.85;103524.78;5109653;28;20028;-80
2024/01/09 11:19:50;;;;;;;0.20;0.20;;;;;;;1.23;43.76;103529.38;5103937;28;20039;-80
2024/01/09 11:22:18;;;;;;;0.20;0.20;;;;;;;1.28;43.82;103522.75;5104386;28;20031;-81
2024/01/09 11:24:47;;;;;;;0.13;0.13;;;;;;;1.41;43.68;103513.94;5105812;28;20032;-80
2024/01/09 11:27:17;;;;;;;0.15;0.15;;;;;;;1.41;42.49;103515.69;5100095;28;20047;-79